createdAt,value
2018-02-20T00:02:02.731Z,4.63
2018-02-20T00:07:05.684Z,5.97
2018-02-20T00:12:08.271Z,11.33
2018-02-20T00:17:11.025Z,6.63
2018-02-20T00:22:15.388Z,6.57
2018-02-20T00:27:17.936Z,8.80
2018-02-20T00:32:20.919Z,5.33
2018-02-20T00:37:23.506Z,5.97
2018-02-20T00:42:26.100Z,4.83
2018-02-20T00:47:28.986Z,6.67
2018-02-20T00:52:31.552Z,3.93
2018-02-20T00:57:34.067Z,4.80
2018-02-20T01:02:36.891Z,5.20
2018-02-20T01:07:41.228Z,7.50
2018-02-20T01:12:44.520Z,4.27
2018-02-20T01:17:47.173Z,4.23
2018-02-20T01:22:49.770Z,3.93
2018-02-20T01:27:52.438Z,6.03
2018-02-20T01:32:55.001Z,5.73
2018-02-20T01:37:58.326Z,4.77
2018-02-20T01:43:00.884Z,9.10
2018-02-20T01:48:04.582Z,5.20
2018-02-20T01:53:07.111Z,4.93
2018-02-20T01:58:09.845Z,11.93
2018-02-20T02:03:12.348Z,5.00
2018-02-20T02:08:15.450Z,5.33
2018-02-20T02:13:17.995Z,7.10
2018-02-20T02:18:20.937Z,11.80
2018-02-20T02:23:23.651Z,7.37
2018-02-20T02:28:26.927Z,9.17
2018-02-20T02:33:29.791Z,6.60
2018-02-20T02:38:32.339Z,6.00
2018-02-20T02:43:35.646Z,6.50
2018-02-20T02:48:38.350Z,4.80
2018-02-20T02:53:40.949Z,8.70
2018-02-20T02:58:44.261Z,10.50
2018-02-20T03:03:47.644Z,13.10
2018-02-20T03:08:50.161Z,5.47
2018-02-20T03:13:52.682Z,5.73
2018-02-20T03:18:55.245Z,6.63
2018-02-20T03:23:59.277Z,10.50
2018-02-20T03:29:01.840Z,5.77
2018-02-20T03:34:04.408Z,11.33
2018-02-20T03:39:06.949Z,8.20
2018-02-20T03:44:09.530Z,5.90
2018-02-20T03:49:12.448Z,3.80
2018-02-20T03:54:14.992Z,5.30
2018-02-20T03:59:17.672Z,5.83
2018-02-20T04:04:20.624Z,7.00
2018-02-20T04:09:23.359Z,6.10
2018-02-20T04:14:25.954Z,4.57
2018-02-20T04:19:28.645Z,6.40
2018-02-20T04:24:31.453Z,7.20
2018-02-20T04:29:34.795Z,5.60
2018-02-20T04:34:37.365Z,8.07
2018-02-20T04:39:39.959Z,3.77
2018-02-20T04:44:43.030Z,4.03
2018-02-20T04:49:45.573Z,5.57
2018-02-20T04:54:48.113Z,3.63
2018-02-20T04:59:50.736Z,6.27
2018-02-20T05:04:54.344Z,5.27
2018-02-20T05:09:57.664Z,4.73
2018-02-20T05:15:00.460Z,6.10
2018-02-20T05:20:03.100Z,4.00
2018-02-20T05:25:05.633Z,3.43
2018-02-20T05:30:08.216Z,7.90
2018-02-20T05:35:10.837Z,4.40
2018-02-20T05:40:13.539Z,4.17
2018-02-20T05:45:16.926Z,6.53
2018-02-20T05:50:19.470Z,4.33
2018-02-20T05:55:22.052Z,4.40
2018-02-20T06:00:24.730Z,7.53
2018-02-20T06:05:28.458Z,8.03
2018-02-20T06:10:31.019Z,3.97
2018-02-20T06:15:34.363Z,5.87
2018-02-20T06:20:37.778Z,3.57
2018-02-20T06:25:41.249Z,4.33
2018-02-20T06:30:43.832Z,5.30
2018-02-20T06:35:46.700Z,5.70
2018-02-20T06:40:49.437Z,5.43
2018-02-20T06:45:51.943Z,4.70
2018-02-20T06:50:55.383Z,3.27
2018-02-20T06:55:57.892Z,3.30
2018-02-20T07:01:01.713Z,6.50
2018-02-20T07:06:05.020Z,3.67
2018-02-20T07:11:08.311Z,5.00
2018-02-20T07:16:10.878Z,5.07
2018-02-20T07:21:13.608Z,4.93
2018-02-20T07:26:16.122Z,5.60
2018-02-20T07:31:19.991Z,6.00
2018-02-20T07:36:23.308Z,4.00
2018-02-20T07:41:26.813Z,4.70
2018-02-20T07:46:29.379Z,3.40
2018-02-20T07:51:31.928Z,5.03
2018-02-20T07:56:34.442Z,5.03
2018-02-20T08:01:37.173Z,3.80
2018-02-20T08:06:39.684Z,4.43
2018-02-20T08:11:42.260Z,5.03
2018-02-20T08:16:44.801Z,5.37
2018-02-20T08:21:47.531Z,6.50
2018-02-20T08:26:51.273Z,5.87
2018-02-20T08:31:53.805Z,5.20
2018-02-20T08:36:56.439Z,4.50
2018-02-20T08:41:59.743Z,5.67
2018-02-20T08:47:03.262Z,5.00
2018-02-20T08:52:05.780Z,4.50
2018-02-20T08:57:08.416Z,3.90
2018-02-20T09:02:11.590Z,5.33
2018-02-20T09:07:14.332Z,8.90
2018-02-20T09:12:16.863Z,5.30
2018-02-20T09:17:19.511Z,7.67
2018-02-20T09:22:22.115Z,8.63
2018-02-20T09:27:24.663Z,9.77
2018-02-20T09:32:27.286Z,9.90
2018-02-20T09:37:29.904Z,10.30
2018-02-20T09:42:32.742Z,14.53
2018-02-20T09:47:35.856Z,18.73
2018-02-20T09:52:38.606Z,9.17
2018-02-20T09:57:41.148Z,9.20
2018-02-20T10:02:43.669Z,12.10
2018-02-20T10:07:47.904Z,11.43
2018-02-20T10:12:50.484Z,10.17
2018-02-20T10:17:53.041Z,13.00
2018-02-20T10:22:55.606Z,18.60
2018-02-20T10:27:58.189Z,16.90
2018-02-20T10:33:01.141Z,13.40
2018-02-20T10:38:03.696Z,14.10
2018-02-20T10:43:06.363Z,13.97
2018-02-20T10:48:08.909Z,14.90
2018-02-20T10:53:11.655Z,14.97
2018-02-20T10:58:14.245Z,14.03
2018-02-20T11:03:16.804Z,15.73
2018-02-20T11:08:19.379Z,11.83
2018-02-20T11:13:21.951Z,13.27
2018-02-20T11:18:24.459Z,11.70
2018-02-20T11:23:27.287Z,15.80
2018-02-20T11:28:29.849Z,15.60
2018-02-20T11:33:32.418Z,15.40
2018-02-20T11:38:35.138Z,13.77
2018-02-20T11:43:37.698Z,16.10
2018-02-20T11:48:40.229Z,11.63
2018-02-20T11:53:42.927Z,13.40
2018-02-20T11:58:45.667Z,13.83
2018-02-20T12:03:48.541Z,12.47
2018-02-20T12:08:51.174Z,12.43
2018-02-20T12:13:54.511Z,11.80
2018-02-20T12:18:57.058Z,11.90
2018-02-20T12:23:59.592Z,8.67
2018-02-20T12:29:02.779Z,10.67
2018-02-20T12:34:05.298Z,15.27
2018-02-20T12:39:07.855Z,12.97
2018-02-20T12:44:11.131Z,8.80
2018-02-20T12:49:13.658Z,11.07
2018-02-20T12:54:16.486Z,8.90
2018-02-20T12:59:19.027Z,9.33
2018-02-20T13:04:21.775Z,11.73
2018-02-20T13:09:25.277Z,10.80
2018-02-20T13:14:27.851Z,7.20
2018-02-20T13:19:30.416Z,8.47
2018-02-20T13:24:33.002Z,10.87
2018-02-20T13:29:35.738Z,9.67
2018-02-20T13:34:38.422Z,12.83
2018-02-20T13:39:40.959Z,10.50
2018-02-20T13:44:43.492Z,10.57
2018-02-20T13:49:46.469Z,11.10
2018-02-20T13:54:48.993Z,8.90
2018-02-20T13:59:51.539Z,9.47
2018-02-20T14:04:55.009Z,9.10
2018-02-20T14:09:57.538Z,8.17
2018-02-20T14:15:00.823Z,10.27
2018-02-20T14:20:03.343Z,8.27
2018-02-20T14:25:06.551Z,7.33
2018-02-20T14:30:09.661Z,9.43
2018-02-20T14:35:12.953Z,10.93
2018-02-20T14:40:15.607Z,8.00
2018-02-20T14:45:18.170Z,9.00
2018-02-20T14:50:21.499Z,8.67
2018-02-20T14:55:24.056Z,8.47
2018-02-20T15:00:27.919Z,10.43
2018-02-20T15:05:30.466Z,6.90
2018-02-20T15:10:33.036Z,8.37
2018-02-20T15:15:35.575Z,9.37
2018-02-20T15:20:39.192Z,7.00
2018-02-20T15:25:41.732Z,8.13
2018-02-20T15:30:44.269Z,8.00
2018-02-20T15:35:47.002Z,6.77
2018-02-20T15:40:49.901Z,9.27
2018-02-20T15:45:52.428Z,7.63
2018-02-20T15:50:54.985Z,10.67
2018-02-20T15:55:58.024Z,5.60
2018-02-20T16:01:00.718Z,7.10
2018-02-20T16:06:03.293Z,6.30
2018-02-20T16:11:06.685Z,18.73
2018-02-20T16:16:10.043Z,7.20
2018-02-20T16:21:12.603Z,6.40
2018-02-20T16:26:16.728Z,7.50
2018-02-20T16:31:20.041Z,5.97
2018-02-20T16:36:23.605Z,7.27
2018-02-20T16:41:26.179Z,9.30
2018-02-20T16:46:29.047Z,9.47
2018-02-20T16:51:31.635Z,12.30
2018-02-20T16:56:34.360Z,7.50
2018-02-20T17:01:36.934Z,9.70
2018-02-20T17:06:39.500Z,8.10
2018-02-20T17:11:42.042Z,6.57
2018-02-20T17:16:45.464Z,7.60
2018-02-20T17:21:48.842Z,8.90
2018-02-20T17:26:51.573Z,9.73
2018-02-20T17:31:54.185Z,7.83
2018-02-20T17:36:56.728Z,7.13
2018-02-20T17:41:59.348Z,7.53
2018-02-20T17:47:01.894Z,7.33
2018-02-20T17:52:04.740Z,7.67
2018-02-20T17:57:07.427Z,7.30
2018-02-20T18:02:10.037Z,8.63
2018-02-20T18:07:12.577Z,6.90
2018-02-20T18:12:15.156Z,12.07
2018-02-20T18:17:17.736Z,9.73
2018-02-20T18:22:20.762Z,10.13
2018-02-20T18:27:23.385Z,10.70
2018-02-20T18:32:26.666Z,8.13
2018-02-20T18:37:30.104Z,8.27
2018-02-20T18:42:32.628Z,7.63
2018-02-20T18:47:36.593Z,10.13
2018-02-20T18:52:39.153Z,8.70
2018-02-20T18:57:41.734Z,9.30
2018-02-20T19:02:44.902Z,11.43
2018-02-20T19:07:47.400Z,9.80
2018-02-20T19:12:51.410Z,8.63
2018-02-20T19:17:54.748Z,8.17
2018-02-20T19:22:57.242Z,8.93
2018-02-20T19:28:00.544Z,9.83
2018-02-20T19:33:03.314Z,9.33
2018-02-20T19:38:06.093Z,8.90
2018-02-20T19:43:09.106Z,10.03
2018-02-20T19:48:11.661Z,8.87
2018-02-20T19:53:14.238Z,10.13
2018-02-20T19:58:16.910Z,9.53
2018-02-20T20:03:19.572Z,13.07
2018-02-20T20:08:22.984Z,9.70
2018-02-20T20:13:27.227Z,11.80
2018-02-20T20:18:29.805Z,10.60
2018-02-20T20:23:32.518Z,9.77
2018-02-20T20:28:35.841Z,8.70
2018-02-20T20:33:38.390Z,10.37
2018-02-20T20:38:41.166Z,10.37
2018-02-20T20:43:44.573Z,10.77
2018-02-20T20:48:47.965Z,11.20
2018-02-20T20:53:50.649Z,9.83
2018-02-20T20:58:53.247Z,7.87
2018-02-20T21:03:56.630Z,10.70
2018-02-20T21:09:00.014Z,9.33
2018-02-20T21:14:02.581Z,11.00
2018-02-20T21:19:05.236Z,8.10
2018-02-20T21:24:07.890Z,12.00
2018-02-20T21:29:10.927Z,9.47
2018-02-20T21:34:14.362Z,9.53
2018-02-20T21:39:17.814Z,10.97
2018-02-20T21:44:20.418Z,10.60
2018-02-20T21:49:23.114Z,10.30
2018-02-20T21:54:26.696Z,9.20
2018-02-20T21:59:30.353Z,9.87
2018-02-20T22:04:32.980Z,11.27
2018-02-20T22:09:35.602Z,10.63
2018-02-20T22:14:39.230Z,11.80
2018-02-20T22:19:41.751Z,11.63
2018-02-20T22:24:44.393Z,13.73
2018-02-20T22:29:47.025Z,11.07
2018-02-20T22:34:49.569Z,11.90
2018-02-20T22:39:52.199Z,10.20
2018-02-20T22:44:54.910Z,13.07
2018-02-20T22:49:57.497Z,11.07
2018-02-20T22:55:00.224Z,14.43
2018-02-20T23:00:02.856Z,12.17
2018-02-20T23:05:05.612Z,11.97
2018-02-20T23:10:08.264Z,12.60
2018-02-20T23:15:12.306Z,12.13
2018-02-20T23:20:14.877Z,12.13
2018-02-20T23:25:17.502Z,10.10
2018-02-20T23:30:21.254Z,8.97
2018-02-20T23:35:23.870Z,10.13
2018-02-20T23:40:26.430Z,10.13
2018-02-20T23:45:28.963Z,10.33
2018-02-20T23:50:31.501Z,7.37
2018-02-20T23:55:34.263Z,8.63
